sensor_id;sensor_type;location;lat;lon;timestamp;P1;durP1;ratioP1;P2;durP2;ratioP2
9222;SDS011;7557;51.698;3.942;2022-10-15T00:01:07;31.63;;;25.77;;
9222;SDS011;7557;51.698;3.942;2022-10-15T00:03:38;32.40;;;26.80;;
9222;SDS011;7557;51.698;3.942;2022-10-15T00:06:06;35.70;;;28.05;;
9222;SDS011;7557;51.698;3.942;2022-10-15T00:08:35;35.47;;;27.87;;
9222;SDS011;7557;51.698;3.942;2022-10-15T00:11:03;32.33;;;27.83;;
9222;SDS011;7557;51.698;3.942;2022-10-15T00:13:33;36.00;;;27.87;;
9222;SDS011;7557;51.698;3.942;2022-10-15T00:16:01;37.47;;;29.33;;
9222;SDS011;7557;51.698;3.942;2022-10-15T00:18:29;39.83;;;30.20;;
9222;SDS011;7557;51.698;3.942;2022-10-15T00:20:58;33.03;;;29.30;;
9222;SDS011;7557;51.698;3.942;2022-10-15T00:23:25;37.67;;;29.67;;
9222;SDS011;7557;51.698;3.942;2022-10-15T00:25:59;36.27;;;29.03;;
9222;SDS011;7557;51.698;3.942;2022-10-15T00:28:28;39.37;;;29.80;;
9222;SDS011;7557;51.698;3.942;2022-10-15T00:30:59;32.28;;;28.52;;
9222;SDS011;7557;51.698;3.942;2022-10-15T00:33:27;35.23;;;28.63;;
9222;SDS011;7557;51.698;3.942;2022-10-15T00:36:00;32.25;;;27.67;;
9222;SDS011;7557;51.698;3.942;2022-10-15T00:38:28;34.30;;;28.50;;
9222;SDS011;7557;51.698;3.942;2022-10-15T00:40:56;36.33;;;29.87;;
9222;SDS011;7557;51.698;3.942;2022-10-15T00:43:37;35.78;;;27.38;;
9222;SDS011;7557;51.698;3.942;2022-10-15T00:46:06;34.57;;;28.53;;
9222;SDS011;7557;51.698;3.942;2022-10-15T00:48:47;32.03;;;27.05;;
9222;SDS011;7557;51.698;3.942;2022-10-15T00:51:20;33.95;;;28.00;;
9222;SDS011;7557;51.698;3.942;2022-10-15T00:53:49;39.55;;;27.85;;
9222;SDS011;7557;51.698;3.942;2022-10-15T00:56:19;37.50;;;29.70;;
9222;SDS011;7557;51.698;3.942;2022-10-15T00:58:47;36.57;;;28.73;;
9222;SDS011;7557;51.698;3.942;2022-10-15T01:01:17;32.80;;;27.70;;
9222;SDS011;7557;51.698;3.942;2022-10-15T01:03:45;40.30;;;29.17;;
9222;SDS011;7557;51.698;3.942;2022-10-15T01:06:12;34.10;;;28.90;;
9222;SDS011;7557;51.698;3.942;2022-10-15T01:08:41;32.90;;;26.67;;
9222;SDS011;7557;51.698;3.942;2022-10-15T01:11:12;36.17;;;29.50;;
9222;SDS011;7557;51.698;3.942;2022-10-15T01:13:53;39.17;;;29.73;;
9222;SDS011;7557;51.698;3.942;2022-10-15T01:16:29;39.87;;;31.47;;
9222;SDS011;7557;51.698;3.942;2022-10-15T01:19:03;37.53;;;29.73;;
9222;SDS011;7557;51.698;3.942;2022-10-15T01:21:41;40.20;;;30.07;;
9222;SDS011;7557;51.698;3.942;2022-10-15T01:27:16;35.20;;;28.90;;
9222;SDS011;7557;51.698;3.942;2022-10-15T01:32:56;39.67;;;29.43;;
9222;SDS011;7557;51.698;3.942;2022-10-15T01:35:32;35.80;;;29.13;;
9222;SDS011;7557;51.698;3.942;2022-10-15T01:38:08;36.75;;;28.52;;
9222;SDS011;7557;51.698;3.942;2022-10-15T01:40:45;31.40;;;27.92;;
9222;SDS011;7557;51.698;3.942;2022-10-15T01:43:16;35.38;;;28.65;;
9222;SDS011;7557;51.698;3.942;2022-10-15T01:45:52;39.10;;;28.83;;
9222;SDS011;7557;51.698;3.942;2022-10-15T01:48:23;38.05;;;29.25;;
9222;SDS011;7557;51.698;3.942;2022-10-15T01:50:54;33.25;;;27.63;;
9222;SDS011;7557;51.698;3.942;2022-10-15T01:53:26;37.90;;;27.90;;
9222;SDS011;7557;51.698;3.942;2022-10-15T01:55:55;37.38;;;28.10;;
9222;SDS011;7557;51.698;3.942;2022-10-15T01:58:25;31.27;;;26.33;;
9222;SDS011;7557;51.698;3.942;2022-10-15T02:00:56;32.80;;;25.97;;
9222;SDS011;7557;51.698;3.942;2022-10-15T02:03:24;31.00;;;24.67;;
9222;SDS011;7557;51.698;3.942;2022-10-15T02:05:53;30.63;;;24.93;;
9222;SDS011;7557;51.698;3.942;2022-10-15T02:08:33;32.53;;;26.33;;
9222;SDS011;7557;51.698;3.942;2022-10-15T02:11:06;33.63;;;26.73;;
9222;SDS011;7557;51.698;3.942;2022-10-15T02:13:40;32.60;;;27.13;;
9222;SDS011;7557;51.698;3.942;2022-10-15T02:16:16;34.83;;;27.13;;
9222;SDS011;7557;51.698;3.942;2022-10-15T02:18:50;35.67;;;27.17;;
9222;SDS011;7557;51.698;3.942;2022-10-15T02:21:25;33.30;;;27.40;;
9222;SDS011;7557;51.698;3.942;2022-10-15T02:23:57;33.78;;;26.48;;
9222;SDS011;7557;51.698;3.942;2022-10-15T02:26:33;33.27;;;27.50;;
9222;SDS011;7557;51.698;3.942;2022-10-15T02:29:02;34.27;;;25.60;;
9222;SDS011;7557;51.698;3.942;2022-10-15T02:31:35;35.37;;;26.63;;
9222;SDS011;7557;51.698;3.942;2022-10-15T02:34:04;35.53;;;27.23;;
9222;SDS011;7557;51.698;3.942;2022-10-15T02:36:33;33.35;;;25.52;;
9222;SDS011;7557;51.698;3.942;2022-10-15T02:39:04;32.37;;;26.47;;
9222;SDS011;7557;51.698;3.942;2022-10-15T02:41:35;33.27;;;26.43;;
9222;SDS011;7557;51.698;3.942;2022-10-15T02:44:04;31.50;;;26.30;;
9222;SDS011;7557;51.698;3.942;2022-10-15T02:46:32;33.70;;;26.83;;
9222;SDS011;7557;51.698;3.942;2022-10-15T02:49:01;32.47;;;25.73;;
9222;SDS011;7557;51.698;3.942;2022-10-15T02:51:30;36.20;;;25.80;;
9222;SDS011;7557;51.698;3.942;2022-10-15T02:53:58;30.07;;;24.63;;
9222;SDS011;7557;51.698;3.942;2022-10-15T02:56:26;31.07;;;24.83;;
9222;SDS011;7557;51.698;3.942;2022-10-15T02:58:54;31.77;;;24.47;;
9222;SDS011;7557;51.698;3.942;2022-10-15T03:01:21;31.17;;;24.60;;
9222;SDS011;7557;51.698;3.942;2022-10-15T03:03:49;28.47;;;23.63;;
9222;SDS011;7557;51.698;3.942;2022-10-15T03:06:18;28.87;;;23.53;;
9222;SDS011;7557;51.698;3.942;2022-10-15T03:08:45;27.17;;;22.47;;
9222;SDS011;7557;51.698;3.942;2022-10-15T03:11:12;29.60;;;23.27;;
9222;SDS011;7557;51.698;3.942;2022-10-15T03:13:40;29.20;;;23.47;;
9222;SDS011;7557;51.698;3.942;2022-10-15T03:16:08;25.60;;;22.20;;
9222;SDS011;7557;51.698;3.942;2022-10-15T03:18:36;25.80;;;21.93;;
9222;SDS011;7557;51.698;3.942;2022-10-15T03:21:04;30.97;;;24.00;;
9222;SDS011;7557;51.698;3.942;2022-10-15T03:23:33;31.67;;;23.00;;
9222;SDS011;7557;51.698;3.942;2022-10-15T03:26:00;29.23;;;23.33;;
9222;SDS011;7557;51.698;3.942;2022-10-15T03:28:27;31.03;;;23.70;;
9222;SDS011;7557;51.698;3.942;2022-10-15T03:30:55;35.07;;;25.73;;
9222;SDS011;7557;51.698;3.942;2022-10-15T03:33:22;31.70;;;25.00;;
9222;SDS011;7557;51.698;3.942;2022-10-15T03:35:49;32.90;;;25.57;;
9222;SDS011;7557;51.698;3.942;2022-10-15T03:38:17;34.30;;;25.53;;
9222;SDS011;7557;51.698;3.942;2022-10-15T03:40:46;35.30;;;25.30;;
9222;SDS011;7557;51.698;3.942;2022-10-15T03:43:14;37.07;;;27.23;;
9222;SDS011;7557;51.698;3.942;2022-10-15T03:45:41;38.17;;;27.40;;
9222;SDS011;7557;51.698;3.942;2022-10-15T03:48:09;38.57;;;27.47;;
9222;SDS011;7557;51.698;3.942;2022-10-15T03:50:37;38.20;;;26.97;;
9222;SDS011;7557;51.698;3.942;2022-10-15T03:53:04;37.23;;;27.17;;
9222;SDS011;7557;51.698;3.942;2022-10-15T03:55:32;42.97;;;28.83;;
9222;SDS011;7557;51.698;3.942;2022-10-15T03:58:01;44.93;;;30.70;;
9222;SDS011;7557;51.698;3.942;2022-10-15T04:00:28;50.97;;;31.17;;
9222;SDS011;7557;51.698;3.942;2022-10-15T04:02:56;49.43;;;33.27;;
9222;SDS011;7557;51.698;3.942;2022-10-15T04:05:23;49.40;;;32.37;;
9222;SDS011;7557;51.698;3.942;2022-10-15T04:07:51;51.93;;;33.60;;
9222;SDS011;7557;51.698;3.942;2022-10-15T04:10:18;53.53;;;34.63;;
9222;SDS011;7557;51.698;3.942;2022-10-15T04:12:46;56.67;;;35.33;;
9222;SDS011;7557;51.698;3.942;2022-10-15T04:15:14;57.07;;;34.73;;
9222;SDS011;7557;51.698;3.942;2022-10-15T04:17:42;60.13;;;36.30;;
9222;SDS011;7557;51.698;3.942;2022-10-15T04:20:10;58.50;;;36.80;;
9222;SDS011;7557;51.698;3.942;2022-10-15T04:22:37;56.37;;;35.30;;
9222;SDS011;7557;51.698;3.942;2022-10-15T04:25:05;61.27;;;35.60;;
9222;SDS011;7557;51.698;3.942;2022-10-15T04:27:33;59.73;;;36.10;;
9222;SDS011;7557;51.698;3.942;2022-10-15T04:30:00;65.17;;;37.57;;
9222;SDS011;7557;51.698;3.942;2022-10-15T04:32:29;62.13;;;36.83;;
9222;SDS011;7557;51.698;3.942;2022-10-15T04:34:56;56.97;;;34.03;;
9222;SDS011;7557;51.698;3.942;2022-10-15T04:37:24;51.67;;;31.87;;
9222;SDS011;7557;51.698;3.942;2022-10-15T04:39:51;58.77;;;33.97;;
9222;SDS011;7557;51.698;3.942;2022-10-15T04:42:18;63.83;;;35.73;;
9222;SDS011;7557;51.698;3.942;2022-10-15T04:44:46;70.90;;;36.87;;
9222;SDS011;7557;51.698;3.942;2022-10-15T04:47:13;72.47;;;37.80;;
9222;SDS011;7557;51.698;3.942;2022-10-15T04:49:42;74.80;;;37.63;;
9222;SDS011;7557;51.698;3.942;2022-10-15T04:52:09;70.53;;;36.00;;
9222;SDS011;7557;51.698;3.942;2022-10-15T04:54:37;69.80;;;36.87;;
9222;SDS011;7557;51.698;3.942;2022-10-15T04:57:04;62.37;;;33.80;;
9222;SDS011;7557;51.698;3.942;2022-10-15T04:59:32;58.97;;;33.20;;
9222;SDS011;7557;51.698;3.942;2022-10-15T05:01:59;52.80;;;30.67;;
9222;SDS011;7557;51.698;3.942;2022-10-15T05:04:27;53.30;;;31.37;;
9222;SDS011;7557;51.698;3.942;2022-10-15T05:06:55;54.37;;;31.00;;
9222;SDS011;7557;51.698;3.942;2022-10-15T05:09:23;53.03;;;31.63;;
9222;SDS011;7557;51.698;3.942;2022-10-15T05:11:50;49.47;;;32.37;;
9222;SDS011;7557;51.698;3.942;2022-10-15T05:14:19;49.60;;;30.50;;
9222;SDS011;7557;51.698;3.942;2022-10-15T05:16:46;49.93;;;29.47;;
9222;SDS011;7557;51.698;3.942;2022-10-15T05:19:14;41.13;;;28.40;;
9222;SDS011;7557;51.698;3.942;2022-10-15T05:21:42;38.30;;;26.77;;
9222;SDS011;7557;51.698;3.942;2022-10-15T05:24:11;43.47;;;28.40;;
9222;SDS011;7557;51.698;3.942;2022-10-15T05:26:38;45.13;;;29.87;;
9222;SDS011;7557;51.698;3.942;2022-10-15T05:29:06;40.43;;;28.63;;
9222;SDS011;7557;51.698;3.942;2022-10-15T05:31:33;42.63;;;28.43;;
9222;SDS011;7557;51.698;3.942;2022-10-15T05:34:04;43.07;;;28.57;;
9222;SDS011;7557;51.698;3.942;2022-10-15T05:36:32;41.70;;;27.60;;
9222;SDS011;7557;51.698;3.942;2022-10-15T05:39:04;44.27;;;29.07;;
9222;SDS011;7557;51.698;3.942;2022-10-15T05:41:36;45.27;;;28.47;;
9222;SDS011;7557;51.698;3.942;2022-10-15T05:44:03;45.90;;;28.53;;
9222;SDS011;7557;51.698;3.942;2022-10-15T05:46:33;44.50;;;30.00;;
9222;SDS011;7557;51.698;3.942;2022-10-15T05:49:01;41.03;;;27.07;;
9222;SDS011;7557;51.698;3.942;2022-10-15T05:51:28;41.30;;;27.43;;
9222;SDS011;7557;51.698;3.942;2022-10-15T05:53:56;40.93;;;27.57;;
9222;SDS011;7557;51.698;3.942;2022-10-15T05:56:24;44.47;;;27.45;;
9222;SDS011;7557;51.698;3.942;2022-10-15T05:58:54;43.47;;;28.27;;
9222;SDS011;7557;51.698;3.942;2022-10-15T06:01:21;46.47;;;29.80;;
9222;SDS011;7557;51.698;3.942;2022-10-15T06:03:48;44.35;;;30.77;;
9222;SDS011;7557;51.698;3.942;2022-10-15T06:06:17;52.77;;;32.57;;
9222;SDS011;7557;51.698;3.942;2022-10-15T06:08:46;55.00;;;33.47;;
9222;SDS011;7557;51.698;3.942;2022-10-15T06:11:14;48.05;;;31.98;;
9222;SDS011;7557;51.698;3.942;2022-10-15T06:13:43;48.63;;;32.47;;
9222;SDS011;7557;51.698;3.942;2022-10-15T06:16:13;46.40;;;31.93;;
9222;SDS011;7557;51.698;3.942;2022-10-15T06:18:41;50.57;;;32.10;;
9222;SDS011;7557;51.698;3.942;2022-10-15T06:21:09;51.93;;;32.47;;
9222;SDS011;7557;51.698;3.942;2022-10-15T06:23:38;51.03;;;32.23;;
9222;SDS011;7557;51.698;3.942;2022-10-15T06:26:06;49.57;;;31.07;;
9222;SDS011;7557;51.698;3.942;2022-10-15T06:28:37;56.53;;;34.67;;
9222;SDS011;7557;51.698;3.942;2022-10-15T06:31:05;51.37;;;33.30;;
9222;SDS011;7557;51.698;3.942;2022-10-15T06:33:34;56.23;;;34.70;;
9222;SDS011;7557;51.698;3.942;2022-10-15T06:36:02;51.73;;;34.30;;
9222;SDS011;7557;51.698;3.942;2022-10-15T06:38:31;58.53;;;34.73;;
9222;SDS011;7557;51.698;3.942;2022-10-15T06:40:59;63.17;;;36.77;;
9222;SDS011;7557;51.698;3.942;2022-10-15T06:43:29;63.37;;;36.07;;
9222;SDS011;7557;51.698;3.942;2022-10-15T06:45:57;66.10;;;37.83;;
9222;SDS011;7557;51.698;3.942;2022-10-15T06:48:25;74.97;;;39.23;;
9222;SDS011;7557;51.698;3.942;2022-10-15T06:50:57;68.30;;;37.63;;
9222;SDS011;7557;51.698;3.942;2022-10-15T06:53:26;62.53;;;33.57;;
9222;SDS011;7557;51.698;3.942;2022-10-15T06:55:55;59.17;;;34.90;;
9222;SDS011;7557;51.698;3.942;2022-10-15T06:58:23;68.03;;;36.50;;
9222;SDS011;7557;51.698;3.942;2022-10-15T07:00:51;58.17;;;32.27;;
9222;SDS011;7557;51.698;3.942;2022-10-15T07:03:18;55.67;;;32.57;;
9222;SDS011;7557;51.698;3.942;2022-10-15T07:05:46;54.27;;;33.13;;
9222;SDS011;7557;51.698;3.942;2022-10-15T07:08:15;50.53;;;29.98;;
9222;SDS011;7557;51.698;3.942;2022-10-15T07:10:42;51.63;;;31.40;;
9222;SDS011;7557;51.698;3.942;2022-10-15T07:13:09;47.83;;;28.55;;
9222;SDS011;7557;51.698;3.942;2022-10-15T07:15:37;44.07;;;27.87;;
9222;SDS011;7557;51.698;3.942;2022-10-15T07:18:04;40.07;;;26.80;;
9222;SDS011;7557;51.698;3.942;2022-10-15T07:20:32;39.75;;;25.20;;
9222;SDS011;7557;51.698;3.942;2022-10-15T07:23:00;38.33;;;24.77;;
9222;SDS011;7557;51.698;3.942;2022-10-15T07:25:29;32.97;;;22.97;;
9222;SDS011;7557;51.698;3.942;2022-10-15T07:27:57;32.90;;;23.60;;
9222;SDS011;7557;51.698;3.942;2022-10-15T07:30:24;30.80;;;21.60;;
9222;SDS011;7557;51.698;3.942;2022-10-15T07:32:54;32.17;;;22.10;;
9222;SDS011;7557;51.698;3.942;2022-10-15T07:35:23;32.53;;;21.40;;
9222;SDS011;7557;51.698;3.942;2022-10-15T07:37:51;31.88;;;21.13;;
9222;SDS011;7557;51.698;3.942;2022-10-15T07:40:19;28.80;;;19.80;;
9222;SDS011;7557;51.698;3.942;2022-10-15T07:42:52;25.90;;;19.85;;
9222;SDS011;7557;51.698;3.942;2022-10-15T07:45:20;28.52;;;19.33;;
9222;SDS011;7557;51.698;3.942;2022-10-15T07:47:47;26.45;;;19.55;;
9222;SDS011;7557;51.698;3.942;2022-10-15T07:50:15;26.23;;;18.97;;
9222;SDS011;7557;51.698;3.942;2022-10-15T07:52:42;26.65;;;18.60;;
9222;SDS011;7557;51.698;3.942;2022-10-15T07:55:10;24.40;;;17.17;;
9222;SDS011;7557;51.698;3.942;2022-10-15T07:57:37;22.40;;;17.15;;
9222;SDS011;7557;51.698;3.942;2022-10-15T08:00:07;23.85;;;16.55;;
9222;SDS011;7557;51.698;3.942;2022-10-15T08:02:35;19.67;;;15.63;;
9222;SDS011;7557;51.698;3.942;2022-10-15T08:05:03;20.30;;;15.27;;
9222;SDS011;7557;51.698;3.942;2022-10-15T08:07:31;20.65;;;15.65;;
9222;SDS011;7557;51.698;3.942;2022-10-15T08:09:58;18.35;;;15.07;;
9222;SDS011;7557;51.698;3.942;2022-10-15T08:12:26;18.13;;;15.18;;
9222;SDS011;7557;51.698;3.942;2022-10-15T08:14:53;18.15;;;15.63;;
9222;SDS011;7557;51.698;3.942;2022-10-15T08:17:22;17.67;;;13.70;;
9222;SDS011;7557;51.698;3.942;2022-10-15T08:19:49;19.30;;;15.25;;
9222;SDS011;7557;51.698;3.942;2022-10-15T08:22:17;20.05;;;14.73;;
9222;SDS011;7557;51.698;3.942;2022-10-15T08:24:44;19.30;;;14.65;;
9222;SDS011;7557;51.698;3.942;2022-10-15T08:27:11;17.40;;;13.98;;
9222;SDS011;7557;51.698;3.942;2022-10-15T08:29:39;20.85;;;14.93;;
9222;SDS011;7557;51.698;3.942;2022-10-15T08:32:06;20.13;;;15.75;;
9222;SDS011;7557;51.698;3.942;2022-10-15T08:34:35;19.87;;;15.10;;
9222;SDS011;7557;51.698;3.942;2022-10-15T08:37:03;19.42;;;14.82;;
9222;SDS011;7557;51.698;3.942;2022-10-15T08:39:30;20.55;;;14.25;;
9222;SDS011;7557;51.698;3.942;2022-10-15T08:41:58;19.45;;;15.15;;
9222;SDS011;7557;51.698;3.942;2022-10-15T08:44:31;18.73;;;13.60;;
9222;SDS011;7557;51.698;3.942;2022-10-15T08:47:05;20.30;;;13.43;;
9222;SDS011;7557;51.698;3.942;2022-10-15T08:49:42;19.75;;;13.35;;
9222;SDS011;7557;51.698;3.942;2022-10-15T08:52:15;16.65;;;13.02;;
9222;SDS011;7557;51.698;3.942;2022-10-15T08:54:50;16.00;;;12.32;;
9222;SDS011;7557;51.698;3.942;2022-10-15T08:57:20;16.33;;;11.98;;
9222;SDS011;7557;51.698;3.942;2022-10-15T09:00:00;15.35;;;11.85;;
9222;SDS011;7557;51.698;3.942;2022-10-15T09:02:33;15.25;;;11.32;;
9222;SDS011;7557;51.698;3.942;2022-10-15T09:05:18;16.67;;;12.50;;
9222;SDS011;7557;51.698;3.942;2022-10-15T09:08:03;14.40;;;11.65;;
9222;SDS011;7557;51.698;3.942;2022-10-15T09:10:40;13.68;;;10.63;;
9222;SDS011;7557;51.698;3.942;2022-10-15T09:13:13;14.98;;;11.77;;
9222;SDS011;7557;51.698;3.942;2022-10-15T09:15:47;15.18;;;11.77;;
9222;SDS011;7557;51.698;3.942;2022-10-15T09:18:19;14.68;;;11.52;;
9222;SDS011;7557;51.698;3.942;2022-10-15T09:20:50;13.43;;;10.05;;
9222;SDS011;7557;51.698;3.942;2022-10-15T09:23:20;14.02;;;11.65;;
9222;SDS011;7557;51.698;3.942;2022-10-15T09:25:51;12.88;;;10.80;;
9222;SDS011;7557;51.698;3.942;2022-10-15T09:28:23;14.10;;;10.98;;
9222;SDS011;7557;51.698;3.942;2022-10-15T09:30:56;10.43;;;8.75;;
9222;SDS011;7557;51.698;3.942;2022-10-15T09:33:29;11.02;;;8.95;;
9222;SDS011;7557;51.698;3.942;2022-10-15T09:36:15;13.85;;;9.63;;
9222;SDS011;7557;51.698;3.942;2022-10-15T09:38:53;10.60;;;8.75;;
9222;SDS011;7557;51.698;3.942;2022-10-15T09:41:31;12.05;;;9.77;;
9222;SDS011;7557;51.698;3.942;2022-10-15T09:44:07;14.07;;;9.73;;
9222;SDS011;7557;51.698;3.942;2022-10-15T09:46:43;11.32;;;9.43;;
9222;SDS011;7557;51.698;3.942;2022-10-15T09:49:12;13.65;;;9.48;;
9222;SDS011;7557;51.698;3.942;2022-10-15T09:51:47;11.57;;;9.27;;
9222;SDS011;7557;51.698;3.942;2022-10-15T09:54:20;12.93;;;10.43;;
9222;SDS011;7557;51.698;3.942;2022-10-15T09:56:54;11.77;;;9.35;;
9222;SDS011;7557;51.698;3.942;2022-10-15T09:59:23;12.07;;;10.40;;
9222;SDS011;7557;51.698;3.942;2022-10-15T10:01:55;12.20;;;10.90;;
9222;SDS011;7557;51.698;3.942;2022-10-15T10:04:25;11.75;;;10.48;;
9222;SDS011;7557;51.698;3.942;2022-10-15T10:06:55;12.63;;;11.32;;
9222;SDS011;7557;51.698;3.942;2022-10-15T10:09:25;15.15;;;11.88;;
9222;SDS011;7557;51.698;3.942;2022-10-15T10:11:57;16.08;;;12.55;;
9222;SDS011;7557;51.698;3.942;2022-10-15T10:14:27;15.52;;;12.65;;
9222;SDS011;7557;51.698;3.942;2022-10-15T10:17:11;13.70;;;12.23;;
9222;SDS011;7557;51.698;3.942;2022-10-15T10:19:42;14.98;;;12.95;;
9222;SDS011;7557;51.698;3.942;2022-10-15T10:22:15;14.90;;;13.27;;
9222;SDS011;7557;51.698;3.942;2022-10-15T10:24:44;19.48;;;14.90;;
9222;SDS011;7557;51.698;3.942;2022-10-15T10:27:19;19.05;;;14.23;;
9222;SDS011;7557;51.698;3.942;2022-10-15T10:29:49;20.80;;;15.50;;
9222;SDS011;7557;51.698;3.942;2022-10-15T10:32:20;18.23;;;14.90;;
9222;SDS011;7557;51.698;3.942;2022-10-15T10:34:48;17.73;;;15.70;;
9222;SDS011;7557;51.698;3.942;2022-10-15T10:37:19;16.33;;;14.73;;
9222;SDS011;7557;51.698;3.942;2022-10-15T10:39:50;15.52;;;13.77;;
9222;SDS011;7557;51.698;3.942;2022-10-15T10:42:24;15.07;;;12.98;;
9222;SDS011;7557;51.698;3.942;2022-10-15T10:44:53;12.63;;;11.43;;
9222;SDS011;7557;51.698;3.942;2022-10-15T10:47:21;12.48;;;10.98;;
9222;SDS011;7557;51.698;3.942;2022-10-15T10:49:50;10.75;;;9.75;;
9222;SDS011;7557;51.698;3.942;2022-10-15T10:52:27;10.10;;;9.13;;
9222;SDS011;7557;51.698;3.942;2022-10-15T10:54:57;9.30;;;8.40;;
9222;SDS011;7557;51.698;3.942;2022-10-15T10:57:28;9.35;;;8.55;;
9222;SDS011;7557;51.698;3.942;2022-10-15T11:00:07;9.27;;;8.43;;
9222;SDS011;7557;51.698;3.942;2022-10-15T11:02:39;9.57;;;8.57;;
9222;SDS011;7557;51.698;3.942;2022-10-15T11:05:08;8.93;;;8.23;;
9222;SDS011;7557;51.698;3.942;2022-10-15T11:07:39;9.60;;;8.70;;
9222;SDS011;7557;51.698;3.942;2022-10-15T11:10:15;9.40;;;8.55;;
9222;SDS011;7557;51.698;3.942;2022-10-15T11:12:50;8.40;;;7.60;;
9222;SDS011;7557;51.698;3.942;2022-10-15T11:15:32;9.20;;;8.48;;
9222;SDS011;7557;51.698;3.942;2022-10-15T11:18:20;9.90;;;9.00;;
9222;SDS011;7557;51.698;3.942;2022-10-15T11:21:02;10.25;;;8.52;;
9222;SDS011;7557;51.698;3.942;2022-10-15T11:26:35;7.90;;;7.38;;
9222;SDS011;7557;51.698;3.942;2022-10-15T11:29:20;6.82;;;6.32;;
9222;SDS011;7557;51.698;3.942;2022-10-15T11:31:56;7.20;;;6.60;;
9222;SDS011;7557;51.698;3.942;2022-10-15T11:34:34;7.25;;;6.43;;
9222;SDS011;7557;51.698;3.942;2022-10-15T11:37:15;7.22;;;6.50;;
9222;SDS011;7557;51.698;3.942;2022-10-15T11:39:59;7.03;;;6.53;;
9222;SDS011;7557;51.698;3.942;2022-10-15T11:42:39;6.85;;;6.45;;
9222;SDS011;7557;51.698;3.942;2022-10-15T11:45:25;6.35;;;5.80;;
9222;SDS011;7557;51.698;3.942;2022-10-15T11:48:15;5.32;;;4.93;;
9222;SDS011;7557;51.698;3.942;2022-10-15T11:50:52;4.45;;;4.13;;
9222;SDS011;7557;51.698;3.942;2022-10-15T11:56:19;4.03;;;3.53;;
9222;SDS011;7557;51.698;3.942;2022-10-15T11:58:53;3.67;;;3.35;;
9222;SDS011;7557;51.698;3.942;2022-10-15T12:01:26;3.47;;;3.17;;
9222;SDS011;7557;51.698;3.942;2022-10-15T12:04:00;3.75;;;3.50;;
9222;SDS011;7557;51.698;3.942;2022-10-15T12:06:32;3.38;;;3.08;;
9222;SDS011;7557;51.698;3.942;2022-10-15T12:09:06;6.00;;;3.38;;
9222;SDS011;7557;51.698;3.942;2022-10-15T12:11:40;4.35;;;3.03;;
9222;SDS011;7557;51.698;3.942;2022-10-15T12:14:19;2.67;;;2.47;;
9222;SDS011;7557;51.698;3.942;2022-10-15T12:16:52;1.88;;;1.88;;
9222;SDS011;7557;51.698;3.942;2022-10-15T12:19:31;4.20;;;2.17;;
9222;SDS011;7557;51.698;3.942;2022-10-15T12:22:05;1.33;;;1.10;;
9222;SDS011;7557;51.698;3.942;2022-10-15T12:24:49;1.13;;;0.95;;
9222;SDS011;7557;51.698;3.942;2022-10-15T12:27:25;1.00;;;1.00;;
9222;SDS011;7557;51.698;3.942;2022-10-15T12:30:17;1.95;;;0.90;;
9222;SDS011;7557;51.698;3.942;2022-10-15T12:32:48;0.77;;;0.60;;
9222;SDS011;7557;51.698;3.942;2022-10-15T12:35:24;1.05;;;0.60;;
9222;SDS011;7557;51.698;3.942;2022-10-15T12:38:19;0.55;;;0.55;;
9222;SDS011;7557;51.698;3.942;2022-10-15T12:41:02;1.13;;;0.82;;
9222;SDS011;7557;51.698;3.942;2022-10-15T12:43:33;1.63;;;0.73;;
9222;SDS011;7557;51.698;3.942;2022-10-15T12:46:04;0.70;;;0.70;;
9222;SDS011;7557;51.698;3.942;2022-10-15T12:48:35;3.17;;;0.93;;
9222;SDS011;7557;51.698;3.942;2022-10-15T13:03:07;0.80;;;0.80;;
9222;SDS011;7557;51.698;3.942;2022-10-15T13:05:39;1.48;;;0.70;;
9222;SDS011;7557;51.698;3.942;2022-10-15T13:08:10;2.15;;;0.80;;
9222;SDS011;7557;51.698;3.942;2022-10-15T13:10:46;1.67;;;0.90;;
9222;SDS011;7557;51.698;3.942;2022-10-15T13:13:17;3.33;;;1.00;;
9222;SDS011;7557;51.698;3.942;2022-10-15T13:15:51;2.08;;;1.08;;
9222;SDS011;7557;51.698;3.942;2022-10-15T13:18:22;3.83;;;0.90;;
9222;SDS011;7557;51.698;3.942;2022-10-15T13:20:51;3.30;;;0.93;;
9222;SDS011;7557;51.698;3.942;2022-10-15T13:23:21;3.50;;;1.30;;
9222;SDS011;7557;51.698;3.942;2022-10-15T13:25:52;2.30;;;1.05;;
9222;SDS011;7557;51.698;3.942;2022-10-15T13:28:36;1.67;;;1.08;;
9222;SDS011;7557;51.698;3.942;2022-10-15T13:31:11;7.45;;;1.20;;
9222;SDS011;7557;51.698;3.942;2022-10-15T13:33:42;3.17;;;1.38;;
9222;SDS011;7557;51.698;3.942;2022-10-15T13:36:15;3.53;;;1.45;;
9222;SDS011;7557;51.698;3.942;2022-10-15T13:38:51;4.28;;;1.17;;
9222;SDS011;7557;51.698;3.942;2022-10-15T13:41:22;2.47;;;1.00;;
9222;SDS011;7557;51.698;3.942;2022-10-15T13:43:51;5.25;;;1.20;;
9222;SDS011;7557;51.698;3.942;2022-10-15T13:46:24;2.80;;;0.98;;
9222;SDS011;7557;51.698;3.942;2022-10-15T13:48:56;3.63;;;1.38;;
9222;SDS011;7557;51.698;3.942;2022-10-15T13:51:27;6.50;;;1.30;;
9222;SDS011;7557;51.698;3.942;2022-10-15T13:53:59;4.32;;;1.52;;
9222;SDS011;7557;51.698;3.942;2022-10-15T13:56:28;5.03;;;1.30;;
9222;SDS011;7557;51.698;3.942;2022-10-15T13:58:58;3.47;;;1.25;;
9222;SDS011;7557;51.698;3.942;2022-10-15T14:01:28;4.35;;;1.33;;
9222;SDS011;7557;51.698;3.942;2022-10-15T14:03:58;3.20;;;1.50;;
9222;SDS011;7557;51.698;3.942;2022-10-15T14:06:28;0.90;;;0.90;;
9222;SDS011;7557;51.698;3.942;2022-10-15T14:08:57;2.55;;;1.52;;
9222;SDS011;7557;51.698;3.942;2022-10-15T14:11:26;2.90;;;1.23;;
9222;SDS011;7557;51.698;3.942;2022-10-15T14:14:03;9.57;;;2.47;;
9222;SDS011;7557;51.698;3.942;2022-10-15T14:16:56;2.60;;;1.30;;
9222;SDS011;7557;51.698;3.942;2022-10-15T14:19:25;8.48;;;1.77;;
9222;SDS011;7557;51.698;3.942;2022-10-15T14:21:56;3.45;;;1.48;;
9222;SDS011;7557;51.698;3.942;2022-10-15T14:24:27;3.03;;;1.33;;
9222;SDS011;7557;51.698;3.942;2022-10-15T14:27:12;7.78;;;1.63;;
9222;SDS011;7557;51.698;3.942;2022-10-15T14:29:43;5.00;;;1.75;;
9222;SDS011;7557;51.698;3.942;2022-10-15T14:32:21;8.80;;;1.90;;
9222;SDS011;7557;51.698;3.942;2022-10-15T14:34:50;3.83;;;1.42;;
9222;SDS011;7557;51.698;3.942;2022-10-15T14:37:26;5.97;;;1.92;;
9222;SDS011;7557;51.698;3.942;2022-10-15T14:40:11;2.83;;;1.83;;
9222;SDS011;7557;51.698;3.942;2022-10-15T14:42:49;2.53;;;1.27;;
9222;SDS011;7557;51.698;3.942;2022-10-15T14:45:28;4.47;;;1.40;;
9222;SDS011;7557;51.698;3.942;2022-10-15T14:47:59;4.90;;;1.67;;
9222;SDS011;7557;51.698;3.942;2022-10-15T14:50:34;3.38;;;1.75;;
9222;SDS011;7557;51.698;3.942;2022-10-15T14:53:09;2.42;;;1.23;;
9222;SDS011;7557;51.698;3.942;2022-10-15T14:55:47;6.15;;;1.40;;
9222;SDS011;7557;51.698;3.942;2022-10-15T14:58:17;3.03;;;1.73;;
9222;SDS011;7557;51.698;3.942;2022-10-15T15:00:48;7.25;;;1.65;;
9222;SDS011;7557;51.698;3.942;2022-10-15T15:03:25;3.03;;;1.50;;
9222;SDS011;7557;51.698;3.942;2022-10-15T15:05:54;4.55;;;1.83;;
9222;SDS011;7557;51.698;3.942;2022-10-15T15:08:23;4.85;;;1.70;;
9222;SDS011;7557;51.698;3.942;2022-10-15T15:10:51;1.75;;;1.10;;
9222;SDS011;7557;51.698;3.942;2022-10-15T15:13:22;4.57;;;1.45;;
9222;SDS011;7557;51.698;3.942;2022-10-15T15:15:51;2.20;;;1.73;;
9222;SDS011;7557;51.698;3.942;2022-10-15T15:18:19;6.05;;;2.10;;
9222;SDS011;7557;51.698;3.942;2022-10-15T15:20:49;5.05;;;1.70;;
9222;SDS011;7557;51.698;3.942;2022-10-15T15:23:17;4.13;;;1.75;;
9222;SDS011;7557;51.698;3.942;2022-10-15T15:25:47;5.80;;;1.35;;
9222;SDS011;7557;51.698;3.942;2022-10-15T15:28:16;3.22;;;1.50;;
9222;SDS011;7557;51.698;3.942;2022-10-15T15:30:46;5.35;;;1.70;;
9222;SDS011;7557;51.698;3.942;2022-10-15T15:33:20;8.35;;;1.50;;
9222;SDS011;7557;51.698;3.942;2022-10-15T15:35:50;7.15;;;2.25;;
9222;SDS011;7557;51.698;3.942;2022-10-15T15:38:20;5.40;;;1.50;;
9222;SDS011;7557;51.698;3.942;2022-10-15T15:40:54;5.10;;;1.75;;
9222;SDS011;7557;51.698;3.942;2022-10-15T15:43:28;6.05;;;1.70;;